sensor_id;sensor_type;location;lat;lon;timestamp;pressure;altitude;pressure_sealevel;temperature;humidity
50292;BME280;36190;54.980;73.388;2023-05-24T00:00:09;101278.13;;;14.02;45.03
50292;BME280;36190;54.980;73.388;2023-05-24T00:02:38;101276.09;;;14.05;45.16
50292;BME280;36190;54.980;73.388;2023-05-24T00:05:07;101278.44;;;14.08;45.06
50292;BME280;36190;54.980;73.388;2023-05-24T00:07:35;101283.47;;;14.11;45.10
50292;BME280;36190;54.980;73.388;2023-05-24T00:10:05;101282.47;;;14.12;44.61
50292;BME280;36190;54.980;73.388;2023-05-24T00:12:33;101282.09;;;14.15;44.33
50292;BME280;36190;54.980;73.388;2023-05-24T00:15:01;101279.75;;;14.20;44.13
50292;BME280;36190;54.980;73.388;2023-05-24T00:17:28;101279.91;;;14.27;43.89
50292;BME280;36190;54.980;73.388;2023-05-24T00:19:56;101278.38;;;14.33;43.96
50292;BME280;36190;54.980;73.388;2023-05-24T00:22:24;101278.34;;;14.41;44.08
50292;BME280;36190;54.980;73.388;2023-05-24T00:24:51;101279.34;;;14.48;43.99
50292;BME280;36190;54.980;73.388;2023-05-24T00:27:20;101278.31;;;14.57;43.71
50292;BME280;36190;54.980;73.388;2023-05-24T00:29:48;101274.94;;;14.64;43.58
50292;BME280;36190;54.980;73.388;2023-05-24T00:32:15;101286.66;;;14.71;43.37
50292;BME280;36190;54.980;73.388;2023-05-24T00:34:43;101283.97;;;14.79;43.18
50292;BME280;36190;54.980;73.388;2023-05-24T00:37:10;101281.63;;;14.84;43.12
50292;BME280;36190;54.980;73.388;2023-05-24T00:39:38;101283.41;;;14.92;42.91
50292;BME280;36190;54.980;73.388;2023-05-24T00:42:06;101285.56;;;14.97;42.68
50292;BME280;36190;54.980;73.388;2023-05-24T00:44:35;101290.25;;;15.03;42.79
50292;BME280;36190;54.980;73.388;2023-05-24T00:47:02;101288.72;;;15.09;42.73
50292;BME280;36190;54.980;73.388;2023-05-24T00:49:30;101288.81;;;15.16;42.70
50292;BME280;36190;54.980;73.388;2023-05-24T00:51:58;101290.28;;;15.26;42.39
50292;BME280;36190;54.980;73.388;2023-05-24T00:54:26;101292.09;;;15.34;42.28
50292;BME280;36190;54.980;73.388;2023-05-24T00:56:55;101288.88;;;15.39;42.24
50292;BME280;36190;54.980;73.388;2023-05-24T00:59:23;101292.31;;;15.48;42.07
50292;BME280;36190;54.980;73.388;2023-05-24T01:01:52;101285.22;;;15.55;41.81
50292;BME280;36190;54.980;73.388;2023-05-24T01:04:20;101291.38;;;15.64;41.96
50292;BME280;36190;54.980;73.388;2023-05-24T01:06:58;101291.97;;;15.74;41.73
50292;BME280;36190;54.980;73.388;2023-05-24T01:09:36;101288.41;;;15.82;41.53
50292;BME280;36190;54.980;73.388;2023-05-24T01:12:13;101274.47;;;15.78;41.65
50292;BME280;36190;54.980;73.388;2023-05-24T01:14:52;101295.25;;;16.08;41.24
50292;BME280;36190;54.980;73.388;2023-05-24T01:17:31;101279.75;;;16.10;41.18
50292;BME280;36190;54.980;73.388;2023-05-24T01:20:03;101289.50;;;16.26;40.92
50292;BME280;36190;54.980;73.388;2023-05-24T01:23:02;101308.41;;;16.41;40.82
50292;BME280;36190;54.980;73.388;2023-05-24T01:25:52;101305.22;;;16.53;40.54
50292;BME280;36190;54.980;73.388;2023-05-24T01:28:23;101303.63;;;16.58;40.43
50292;BME280;36190;54.980;73.388;2023-05-24T01:30:50;101302.72;;;16.66;40.23
50292;BME280;36190;54.980;73.388;2023-05-24T01:33:18;101300.13;;;16.73;40.25
50292;BME280;36190;54.980;73.388;2023-05-24T01:35:46;101304.38;;;16.82;40.09
50292;BME280;36190;54.980;73.388;2023-05-24T01:38:13;101308.84;;;16.90;39.80
50292;BME280;36190;54.980;73.388;2023-05-24T01:40:41;101310.41;;;16.99;39.51
50292;BME280;36190;54.980;73.388;2023-05-24T01:43:14;101302.88;;;17.10;39.26
50292;BME280;36190;54.980;73.388;2023-05-24T01:45:51;101302.19;;;17.23;38.83
50292;BME280;36190;54.980;73.388;2023-05-24T01:48:33;101295.59;;;17.25;38.42
50292;BME280;36190;54.980;73.388;2023-05-24T01:51:04;101309.28;;;17.45;37.77
50292;BME280;36190;54.980;73.388;2023-05-24T01:53:34;101302.91;;;17.53;37.56
50292;BME280;36190;54.980;73.388;2023-05-24T01:56:05;101302.59;;;17.63;37.32
50292;BME280;36190;54.980;73.388;2023-05-24T01:58:32;101306.66;;;17.74;37.25
50292;BME280;36190;54.980;73.388;2023-05-24T02:01:04;101305.50;;;17.83;36.73
50292;BME280;36190;54.980;73.388;2023-05-24T02:03:31;101298.28;;;17.91;36.77
50292;BME280;36190;54.980;73.388;2023-05-24T02:06:01;101305.22;;;18.00;36.65
50292;BME280;36190;54.980;73.388;2023-05-24T02:08:28;101302.41;;;18.08;36.46
50292;BME280;36190;54.980;73.388;2023-05-24T02:10:56;101306.84;;;18.16;36.25
50292;BME280;36190;54.980;73.388;2023-05-24T02:13:23;101295.66;;;18.26;36.23
50292;BME280;36190;54.980;73.388;2023-05-24T02:15:51;101302.59;;;18.35;36.17
50292;BME280;36190;54.980;73.388;2023-05-24T02:18:21;101296.00;;;18.45;36.32
50292;BME280;36190;54.980;73.388;2023-05-24T02:20:48;101303.53;;;18.56;36.17
50292;BME280;36190;54.980;73.388;2023-05-24T02:23:16;101306.09;;;18.64;36.05
50292;BME280;36190;54.980;73.388;2023-05-24T02:25:43;101305.09;;;18.72;36.18
50292;BME280;36190;54.980;73.388;2023-05-24T02:28:11;101307.63;;;18.80;36.04
50292;BME280;36190;54.980;73.388;2023-05-24T02:30:38;101300.16;;;18.89;35.90
50292;BME280;36190;54.980;73.388;2023-05-24T02:33:09;101301.66;;;18.99;35.76
50292;BME280;36190;54.980;73.388;2023-05-24T02:35:38;101299.66;;;19.07;35.33
50292;BME280;36190;54.980;73.388;2023-05-24T02:38:07;101300.94;;;19.18;35.24
50292;BME280;36190;54.980;73.388;2023-05-24T02:40:34;101298.06;;;19.27;35.29
50292;BME280;36190;54.980;73.388;2023-05-24T02:43:01;101299.53;;;19.36;35.28
50292;BME280;36190;54.980;73.388;2023-05-24T02:45:29;101297.44;;;19.45;35.20
50292;BME280;36190;54.980;73.388;2023-05-24T02:47:56;101301.41;;;19.56;35.25
50292;BME280;36190;54.980;73.388;2023-05-24T02:50:24;101306.44;;;19.65;35.04
50292;BME280;36190;54.980;73.388;2023-05-24T02:52:53;101296.47;;;19.73;34.85
50292;BME280;36190;54.980;73.388;2023-05-24T02:55:20;101293.75;;;19.79;34.67
50292;BME280;36190;54.980;73.388;2023-05-24T02:57:47;101291.03;;;19.86;34.42
50292;BME280;36190;54.980;73.388;2023-05-24T03:00:16;101295.63;;;19.92;34.11
50292;BME280;36190;54.980;73.388;2023-05-24T03:02:44;101294.19;;;20.03;33.96
50292;BME280;36190;54.980;73.388;2023-05-24T03:05:15;101295.88;;;20.11;33.60
50292;BME280;36190;54.980;73.388;2023-05-24T03:07:43;101294.38;;;20.15;32.99
50292;BME280;36190;54.980;73.388;2023-05-24T03:10:12;101296.25;;;20.22;32.47
50292;BME280;36190;54.980;73.388;2023-05-24T03:12:39;101285.41;;;20.28;32.25
50292;BME280;36190;54.980;73.388;2023-05-24T03:15:08;101287.28;;;20.34;32.02
50292;BME280;36190;54.980;73.388;2023-05-24T03:17:36;101292.47;;;20.43;31.86
50292;BME280;36190;54.980;73.388;2023-05-24T03:20:04;101288.06;;;20.48;31.56
50292;BME280;36190;54.980;73.388;2023-05-24T03:22:32;101289.72;;;20.56;31.44
50292;BME280;36190;54.980;73.388;2023-05-24T03:25:00;101289.50;;;20.65;31.34
50292;BME280;36190;54.980;73.388;2023-05-24T03:27:29;101287.16;;;20.75;31.07
50292;BME280;36190;54.980;73.388;2023-05-24T03:29:56;101281.31;;;20.85;30.90
50292;BME280;36190;54.980;73.388;2023-05-24T03:32:24;101284.59;;;20.94;30.52
50292;BME280;36190;54.980;73.388;2023-05-24T03:34:51;101281.44;;;21.04;30.52
50292;BME280;36190;54.980;73.388;2023-05-24T03:37:20;101276.78;;;21.11;30.36
50292;BME280;36190;54.980;73.388;2023-05-24T03:39:47;101280.06;;;21.20;30.30
50292;BME280;36190;54.980;73.388;2023-05-24T03:42:15;101280.25;;;21.25;30.04
50292;BME280;36190;54.980;73.388;2023-05-24T03:44:43;101294.84;;;21.30;29.67
50292;BME280;36190;54.980;73.388;2023-05-24T03:47:11;101295.22;;;21.34;29.46
50292;BME280;36190;54.980;73.388;2023-05-24T03:49:38;101291.03;;;21.38;29.36
50292;BME280;36190;54.980;73.388;2023-05-24T03:52:06;101288.47;;;21.43;29.43
50292;BME280;36190;54.980;73.388;2023-05-24T03:54:33;101290.53;;;21.48;29.13
50292;BME280;36190;54.980;73.388;2023-05-24T03:57:01;101290.50;;;21.55;28.95
50292;BME280;36190;54.980;73.388;2023-05-24T03:59:28;101288.59;;;21.62;28.68
50292;BME280;36190;54.980;73.388;2023-05-24T04:01:58;101287.72;;;21.68;28.42
50292;BME280;36190;54.980;73.388;2023-05-24T04:04:25;101290.78;;;21.79;28.32
50292;BME280;36190;54.980;73.388;2023-05-24T04:06:52;101288.81;;;21.86;28.06
50292;BME280;36190;54.980;73.388;2023-05-24T04:09:22;101284.81;;;21.89;27.56
50292;BME280;36190;54.980;73.388;2023-05-24T04:11:49;101286.88;;;21.93;27.62
50292;BME280;36190;54.980;73.388;2023-05-24T04:14:17;101283.94;;;21.95;27.60
50292;BME280;36190;54.980;73.388;2023-05-24T04:16:44;101279.19;;;21.90;27.40
50292;BME280;36190;54.980;73.388;2023-05-24T04:19:14;101286.50;;;21.90;27.22
50292;BME280;36190;54.980;73.388;2023-05-24T04:21:42;101274.81;;;21.89;27.06
50292;BME280;36190;54.980;73.388;2023-05-24T04:24:09;101278.50;;;21.95;27.04
50292;BME280;36190;54.980;73.388;2023-05-24T04:26:37;101276.78;;;22.01;27.09
50292;BME280;36190;54.980;73.388;2023-05-24T04:29:04;101271.66;;;22.11;27.09
50292;BME280;36190;54.980;73.388;2023-05-24T04:31:32;101282.25;;;22.19;26.91
50292;BME280;36190;54.980;73.388;2023-05-24T04:34:00;101278.63;;;22.25;27.06
50292;BME280;36190;54.980;73.388;2023-05-24T04:36:29;101266.88;;;22.32;27.19
50292;BME280;36190;54.980;73.388;2023-05-24T04:38:58;101268.81;;;22.43;27.06
50292;BME280;36190;54.980;73.388;2023-05-24T04:41:28;101277.09;;;22.55;26.76
50292;BME280;36190;54.980;73.388;2023-05-24T04:43:57;101270.38;;;22.58;26.58
50292;BME280;36190;54.980;73.388;2023-05-24T04:46:25;101276.19;;;22.61;26.64
50292;BME280;36190;54.980;73.388;2023-05-24T04:48:53;101268.41;;;22.65;26.39
50292;BME280;36190;54.980;73.388;2023-05-24T04:51:21;101270.66;;;22.68;26.28
50292;BME280;36190;54.980;73.388;2023-05-24T04:53:50;101279.81;;;22.74;26.19
50292;BME280;36190;54.980;73.388;2023-05-24T04:56:18;101266.72;;;22.83;26.42
50292;BME280;36190;54.980;73.388;2023-05-24T04:58:45;101266.31;;;22.98;26.48
50292;BME280;36190;54.980;73.388;2023-05-24T05:01:13;101264.69;;;23.08;26.23
50292;BME280;36190;54.980;73.388;2023-05-24T05:03:42;101280.56;;;23.12;25.76
50292;BME280;36190;54.980;73.388;2023-05-24T05:06:10;101270.69;;;22.99;25.56
50292;BME280;36190;54.980;73.388;2023-05-24T05:08:38;101268.38;;;22.84;25.41
50292;BME280;36190;54.980;73.388;2023-05-24T05:11:07;101254.25;;;22.75;25.47
50292;BME280;36190;54.980;73.388;2023-05-24T05:13:34;101257.38;;;22.78;25.74
50292;BME280;36190;54.980;73.388;2023-05-24T05:16:02;101268.88;;;22.92;25.75
50292;BME280;36190;54.980;73.388;2023-05-24T05:18:30;101263.50;;;23.04;25.52
50292;BME280;36190;54.980;73.388;2023-05-24T05:20:58;101256.56;;;23.20;25.54
50292;BME280;36190;54.980;73.388;2023-05-24T05:23:26;101262.53;;;23.29;25.13
50292;BME280;36190;54.980;73.388;2023-05-24T05:25:53;101252.16;;;23.38;25.08
50292;BME280;36190;54.980;73.388;2023-05-24T05:28:22;101251.91;;;23.40;24.77
50292;BME280;36190;54.980;73.388;2023-05-24T05:30:49;101255.56;;;23.33;24.49
50292;BME280;36190;54.980;73.388;2023-05-24T05:33:17;101251.47;;;23.24;24.48
50292;BME280;36190;54.980;73.388;2023-05-24T05:35:47;101249.22;;;23.21;24.28
50292;BME280;36190;54.980;73.388;2023-05-24T05:38:15;101252.09;;;23.26;24.39
50292;BME280;36190;54.980;73.388;2023-05-24T05:40:43;101251.47;;;23.24;24.07
50292;BME280;36190;54.980;73.388;2023-05-24T05:43:10;101251.47;;;23.24;24.19
50292;BME280;36190;54.980;73.388;2023-05-24T05:45:39;101246.41;;;23.28;24.28
50292;BME280;36190;54.980;73.388;2023-05-24T05:48:07;101251.19;;;23.32;24.22
50292;BME280;36190;54.980;73.388;2023-05-24T05:50:34;101253.44;;;23.35;23.89
50292;BME280;36190;54.980;73.388;2023-05-24T05:53:02;101253.69;;;23.34;23.84
50292;BME280;36190;54.980;73.388;2023-05-24T05:55:29;101243.38;;;23.36;23.82
50292;BME280;36190;54.980;73.388;2023-05-24T05:57:56;101237.38;;;23.46;23.88
50292;BME280;36190;54.980;73.388;2023-05-24T06:00:24;101243.88;;;23.45;23.65
50292;BME280;36190;54.980;73.388;2023-05-24T06:02:54;101254.53;;;23.46;23.87
50292;BME280;36190;54.980;73.388;2023-05-24T06:05:21;101251.22;;;23.44;23.88
50292;BME280;36190;54.980;73.388;2023-05-24T06:07:48;101250.38;;;23.44;23.90
50292;BME280;36190;54.980;73.388;2023-05-24T06:10:17;101249.44;;;23.50;23.90
50292;BME280;36190;54.980;73.388;2023-05-24T06:12:44;101239.25;;;23.57;23.96
50292;BME280;36190;54.980;73.388;2023-05-24T06:15:12;101229.00;;;23.71;24.31
50292;BME280;36190;54.980;73.388;2023-05-24T06:17:39;101237.84;;;23.90;24.19
50292;BME280;36190;54.980;73.388;2023-05-24T06:20:11;101231.72;;;24.07;23.95
50292;BME280;36190;54.980;73.388;2023-05-24T06:22:41;101226.00;;;24.21;24.06
50292;BME280;36190;54.980;73.388;2023-05-24T06:25:10;101236.78;;;24.27;23.82
50292;BME280;36190;54.980;73.388;2023-05-24T06:27:40;101225.66;;;24.29;23.67
50292;BME280;36190;54.980;73.388;2023-05-24T06:30:08;101226.72;;;24.28;23.63
50292;BME280;36190;54.980;73.388;2023-05-24T06:32:36;101231.69;;;24.31;23.56
50292;BME280;36190;54.980;73.388;2023-05-24T06:35:03;101220.31;;;24.34;23.66
50292;BME280;36190;54.980;73.388;2023-05-24T06:37:32;101228.84;;;24.38;23.37
50292;BME280;36190;54.980;73.388;2023-05-24T06:40:00;101226.19;;;24.43;23.50
50292;BME280;36190;54.980;73.388;2023-05-24T06:42:29;101218.72;;;24.50;23.08
50292;BME280;36190;54.980;73.388;2023-05-24T06:44:56;101223.81;;;24.47;22.82
50292;BME280;36190;54.980;73.388;2023-05-24T06:47:24;101221.25;;;24.40;22.54
50292;BME280;36190;54.980;73.388;2023-05-24T06:49:51;101211.66;;;24.25;22.72
50292;BME280;36190;54.980;73.388;2023-05-24T06:52:19;101209.81;;;24.14;22.81
50292;BME280;36190;54.980;73.388;2023-05-24T06:54:48;101212.38;;;24.21;22.93
50292;BME280;36190;54.980;73.388;2023-05-24T06:57:16;101206.09;;;24.32;22.68
50292;BME280;36190;54.980;73.388;2023-05-24T06:59:44;101208.66;;;24.51;22.50
50292;BME280;36190;54.980;73.388;2023-05-24T07:02:11;101212.03;;;24.70;22.34
50292;BME280;36190;54.980;73.388;2023-05-24T07:04:39;101215.38;;;24.89;21.81
50292;BME280;36190;54.980;73.388;2023-05-24T07:07:07;101205.00;;;25.03;21.66
50292;BME280;36190;54.980;73.388;2023-05-24T07:09:38;101208.16;;;25.12;21.43
50292;BME280;36190;54.980;73.388;2023-05-24T07:12:08;101212.28;;;25.15;21.03
50292;BME280;36190;54.980;73.388;2023-05-24T07:14:35;101189.72;;;25.19;20.95
50292;BME280;36190;54.980;73.388;2023-05-24T07:17:03;101196.41;;;25.29;20.92
50292;BME280;36190;54.980;73.388;2023-05-24T07:19:31;101201.78;;;25.40;20.80
50292;BME280;36190;54.980;73.388;2023-05-24T07:22:00;101192.28;;;25.43;20.78
50292;BME280;36190;54.980;73.388;2023-05-24T07:24:28;101197.09;;;25.53;20.73
50292;BME280;36190;54.980;73.388;2023-05-24T07:26:56;101204.03;;;25.61;20.81
50292;BME280;36190;54.980;73.388;2023-05-24T07:29:25;101195.59;;;25.62;20.45
50292;BME280;36190;54.980;73.388;2023-05-24T07:31:53;101193.59;;;25.75;20.60
50292;BME280;36190;54.980;73.388;2023-05-24T07:34:22;101192.78;;;25.74;20.95
50292;BME280;36190;54.980;73.388;2023-05-24T07:36:52;101191.69;;;25.75;21.11
50292;BME280;36190;54.980;73.388;2023-05-24T07:39:20;101194.06;;;25.89;21.28
50292;BME280;36190;54.980;73.388;2023-05-24T07:41:48;101183.84;;;26.01;20.82
50292;BME280;36190;54.980;73.388;2023-05-24T07:44:15;101182.38;;;26.16;20.63
50292;BME280;36190;54.980;73.388;2023-05-24T07:46:44;101185.03;;;26.28;20.62
50292;BME280;36190;54.980;73.388;2023-05-24T07:49:12;101169.03;;;26.42;20.14
50292;BME280;36190;54.980;73.388;2023-05-24T07:51:40;101177.75;;;26.61;20.40
50292;BME280;36190;54.980;73.388;2023-05-24T07:54:07;101183.72;;;26.85;20.04
50292;BME280;36190;54.980;73.388;2023-05-24T07:56:34;101172.44;;;27.04;20.17
50292;BME280;36190;54.980;73.388;2023-05-24T07:59:02;101175.38;;;27.30;20.25
50292;BME280;36190;54.980;73.388;2023-05-24T08:01:30;101178.72;;;27.37;20.24
50292;BME280;36190;54.980;73.388;2023-05-24T08:04:00;101178.72;;;27.37;20.19
50292;BME280;36190;54.980;73.388;2023-05-24T08:06:28;101171.00;;;27.29;19.96
50292;BME280;36190;54.980;73.388;2023-05-24T08:08:57;101173.13;;;27.22;20.33
50292;BME280;36190;54.980;73.388;2023-05-24T08:11:24;101169.03;;;27.24;20.07
50292;BME280;36190;54.980;73.388;2023-05-24T08:13:52;101158.50;;;27.43;20.19
50292;BME280;36190;54.980;73.388;2023-05-24T08:16:20;101160.09;;;27.77;19.58
50292;BME280;36190;54.980;73.388;2023-05-24T08:18:47;101169.84;;;28.11;19.76
50292;BME280;36190;54.980;73.388;2023-05-24T08:21:16;101169.69;;;28.44;19.63
50292;BME280;36190;54.980;73.388;2023-05-24T08:23:43;101172.22;;;28.71;19.06
50292;BME280;36190;54.980;73.388;2023-05-24T08:26:11;101163.50;;;29.00;19.08
50292;BME280;36190;54.980;73.388;2023-05-24T08:28:38;101154.13;;;29.22;18.93
50292;BME280;36190;54.980;73.388;2023-05-24T08:31:06;101165.13;;;29.32;18.62
50292;BME280;36190;54.980;73.388;2023-05-24T08:33:33;101156.31;;;29.30;18.33
50292;BME280;36190;54.980;73.388;2023-05-24T08:36:01;101150.88;;;29.09;18.21
50292;BME280;36190;54.980;73.388;2023-05-24T08:38:29;101156.63;;;29.08;18.08
50292;BME280;36190;54.980;73.388;2023-05-24T08:40:57;101160.16;;;29.45;18.32
50292;BME280;36190;54.980;73.388;2023-05-24T08:43:25;101149.00;;;30.02;17.80
50292;BME280;36190;54.980;73.388;2023-05-24T08:45:57;101153.28;;;30.34;17.63
50292;BME280;36190;54.980;73.388;2023-05-24T08:48:26;101165.66;;;30.42;17.18
50292;BME280;36190;54.980;73.388;2023-05-24T08:50:54;101167.38;;;30.22;16.46
50292;BME280;36190;54.980;73.388;2023-05-24T08:53:23;101157.31;;;29.86;16.60
50292;BME280;36190;54.980;73.388;2023-05-24T08:55:53;101160.69;;;29.62;16.33
50292;BME280;36190;54.980;73.388;2023-05-24T08:58:21;101165.66;;;29.66;16.51
50292;BME280;36190;54.980;73.388;2023-05-24T09:00:48;101149.69;;;29.68;16.82
50292;BME280;36190;54.980;73.388;2023-05-24T09:03:16;101156.03;;;29.68;17.11
50292;BME280;36190;54.980;73.388;2023-05-24T09:05:44;101154.03;;;29.84;17.18
50292;BME280;36190;54.980;73.388;2023-05-24T09:08:12;101151.22;;;30.10;16.86
50292;BME280;36190;54.980;73.388;2023-05-24T09:10:43;101163.41;;;30.44;16.37
50292;BME280;36190;54.980;73.388;2023-05-24T09:13:14;101161.94;;;30.62;16.51
50292;BME280;36190;54.980;73.388;2023-05-24T09:15:42;101150.69;;;30.93;16.05
50292;BME280;36190;54.980;73.388;2023-05-24T09:18:10;101144.38;;;31.27;16.10
50292;BME280;36190;54.980;73.388;2023-05-24T09:20:37;101141.91;;;31.50;16.14
50292;BME280;36190;54.980;73.388;2023-05-24T09:23:04;101141.09;;;31.74;15.70
50292;BME280;36190;54.980;73.388;2023-05-24T09:25:33;101142.28;;;31.68;15.90
50292;BME280;36190;54.980;73.388;2023-05-24T09:28:05;101137.34;;;31.65;16.04
50292;BME280;36190;54.980;73.388;2023-05-24T09:30:35;101140.19;;;31.60;16.07
50292;BME280;36190;54.980;73.388;2023-05-24T09:33:02;101135.44;;;31.90;15.76
50292;BME280;36190;54.980;73.388;2023-05-24T09:35:30;101132.88;;;32.18;15.73
50292;BME280;36190;54.980;73.388;2023-05-24T09:37:58;101136.91;;;32.45;15.49
50292;BME280;36190;54.980;73.388;2023-05-24T09:40:26;101139.19;;;32.76;15.43
50292;BME280;36190;54.980;73.388;2023-05-24T09:43:04;101132.38;;;32.87;15.34
50292;BME280;36190;54.980;73.388;2023-05-24T09:45:40;101136.53;;;33.04;15.13
50292;BME280;36190;54.980;73.388;2023-05-24T09:48:12;101150.72;;;33.16;14.91
50292;BME280;36190;54.980;73.388;2023-05-24T09:50:40;101138.56;;;32.98;14.77
50292;BME280;36190;54.980;73.388;2023-05-24T09:53:07;101134.19;;;32.78;15.12
50292;BME280;36190;54.980;73.388;2023-05-24T09:55:35;101131.72;;;32.96;14.89
50292;BME280;36190;54.980;73.388;2023-05-24T09:58:04;101134.34;;;33.34;15.13
50292;BME280;36190;54.980;73.388;2023-05-24T10:00:33;101135.63;;;33.70;14.89
50292;BME280;36190;54.980;73.388;2023-05-24T10:03:06;101144.41;;;33.72;14.74
50292;BME280;36190;54.980;73.388;2023-05-24T10:05:36;101150.25;;;33.56;14.91
50292;BME280;36190;54.980;73.388;2023-05-24T10:08:03;101128.00;;;33.47;14.91
50292;BME280;36190;54.980;73.388;2023-05-24T10:10:32;101127.19;;;33.89;14.74
50292;BME280;36190;54.980;73.388;2023-05-24T10:13:00;101127.50;;;34.38;14.50
50292;BME280;36190;54.980;73.388;2023-05-24T10:15:28;101127.47;;;34.75;14.24
50292;BME280;36190;54.980;73.388;2023-05-24T10:17:56;101128.59;;;34.97;14.01
50292;BME280;36190;54.980;73.388;2023-05-24T10:20:26;101127.22;;;35.40;14.04
50292;BME280;36190;54.980;73.388;2023-05-24T10:22:58;101129.31;;;35.92;13.57
50292;BME280;36190;54.980;73.388;2023-05-24T10:25:27;101124.00;;;36.58;13.57
50292;BME280;36190;54.980;73.388;2023-05-24T10:27:56;101125.72;;;36.89;13.26
50292;BME280;36190;54.980;73.388;2023-05-24T10:30:28;101126.94;;;36.70;13.25
50292;BME280;36190;54.980;73.388;2023-05-24T10:32:58;101117.63;;;36.57;13.08
50292;BME280;36190;54.980;73.388;2023-05-24T10:35:29;101116.44;;;36.85;13.20
50292;BME280;36190;54.980;73.388;2023-05-24T10:37:58;101125.84;;;37.19;12.99
50292;BME280;36190;54.980;73.388;2023-05-24T10:40:26;101120.50;;;37.44;12.37
50292;BME280;36190;54.980;73.388;2023-05-24T10:42:54;101117.00;;;37.65;12.42
50292;BME280;36190;54.980;73.388;2023-05-24T10:45:33;101117.78;;;37.65;12.43
50292;BME280;36190;54.980;73.388;2023-05-24T10:48:38;101116.63;;;37.66;12.63
50292;BME280;36190;54.980;73.388;2023-05-24T10:51:36;101117.97;;;37.60;12.75
50292;BME280;36190;54.980;73.388;2023-05-24T10:54:12;101121.69;;;37.73;12.69
50292;BME280;36190;54.980;73.388;2023-05-24T10:56:41;101114.38;;;37.90;12.03
50292;BME280;36190;54.980;73.388;2023-05-24T10:59:09;101109.63;;;38.11;12.37
50292;BME280;36190;54.980;73.388;2023-05-24T11:01:54;101116.81;;;38.13;11.92
50292;BME280;36190;54.980;73.388;2023-05-24T11:04:22;101119.69;;;37.74;12.09
50292;BME280;36190;54.980;73.388;2023-05-24T11:06:54;101114.53;;;37.54;11.91
50292;BME280;36190;54.980;73.388;2023-05-24T11:09:22;101108.22;;;37.75;12.34
50292;BME280;36190;54.980;73.388;2023-05-24T11:11:54;101109.97;;;37.50;11.62
50292;BME280;36190;54.980;73.388;2023-05-24T11:14:23;101105.22;;;37.59;11.71
50292;BME280;36190;54.980;73.388;2023-05-24T11:16:54;101106.94;;;37.94;11.69
50292;BME280;36190;54.980;73.388;2023-05-24T11:19:22;101102.19;;;38.58;11.49
50292;BME280;36190;54.980;73.388;2023-05-24T11:21:52;101107.56;;;39.10;11.60
50292;BME280;36190;54.980;73.388;2023-05-24T11:24:23;101106.38;;;39.23;11.65
50292;BME280;36190;54.980;73.388;2023-05-24T11:26:52;101107.91;;;39.08;11.96
50292;BME280;36190;54.980;73.388;2023-05-24T11:29:22;101101.38;;;39.16;11.54
50292;BME280;36190;54.980;73.388;2023-05-24T11:31:50;101106.84;;;39.38;11.92
50292;BME280;36190;54.980;73.388;2023-05-24T11:34:19;101110.94;;;39.65;11.82
50292;BME280;36190;54.980;73.388;2023-05-24T11:36:47;101091.69;;;39.88;11.18
50292;BME280;36190;54.980;73.388;2023-05-24T11:39:16;101092.47;;;40.01;11.13
50292;BME280;36190;54.980;73.388;2023-05-24T11:41:44;101078.63;;;40.05;11.61
50292;BME280;36190;54.980;73.388;2023-05-24T11:44:11;101094.59;;;40.62;11.08
50292;BME280;36190;54.980;73.388;2023-05-24T11:46:42;101091.84;;;41.26;10.85
50292;BME280;36190;54.980;73.388;2023-05-24T11:49:12;101101.13;;;41.30;10.81
50292;BME280;36190;54.980;73.388;2023-05-24T11:51:40;101097.06;;;41.28;10.76
50292;BME280;36190;54.980;73.388;2023-05-24T11:54:08;101104.00;;;41.18;10.83
50292;BME280;36190;54.980;73.388;2023-05-24T11:56:37;101097.78;;;41.08;10.86
50292;BME280;36190;54.980;73.388;2023-05-24T11:59:10;101100.34;;;41.30;10.76
50292;BME280;36190;54.980;73.388;2023-05-24T12:01:40;101103.81;;;41.43;10.70
50292;BME280;36190;54.980;73.388;2023-05-24T12:04:07;101106.81;;;41.34;10.75
50292;BME280;36190;54.980;73.388;2023-05-24T12:06:36;101095.97;;;41.32;10.44
50292;BME280;36190;54.980;73.388;2023-05-24T12:09:05;101100.94;;;41.23;10.79
50292;BME280;36190;54.980;73.388;2023-05-24T12:11:40;101096.34;;;41.31;10.74
50292;BME280;36190;54.980;73.388;2023-05-24T12:14:11;101100.66;;;41.80;10.30
50292;BME280;36190;54.980;73.388;2023-05-24T12:16:41;101098.88;;;42.27;10.52
50292;BME280;36190;54.980;73.388;2023-05-24T12:19:12;101094.63;;;42.37;10.36
50292;BME280;36190;54.980;73.388;2023-05-24T12:21:42;101086.53;;;42.32;10.53
50292;BME280;36190;54.980;73.388;2023-05-24T12:24:11;101093.00;;;41.77;10.77
50292;BME280;36190;54.980;73.388;2023-05-24T12:26:44;101092.84;;;41.70;10.89
50292;BME280;36190;54.980;73.388;2023-05-24T12:29:11;101089.03;;;41.98;10.70
50292;BME280;36190;54.980;73.388;2023-05-24T12:31:40;101091.25;;;42.28;10.51
50292;BME280;36190;54.980;73.388;2023-05-24T12:34:10;101089.47;;;42.59;10.32
50292;BME280;36190;54.980;73.388;2023-05-24T12:36:39;101084.13;;;42.73;10.16
50292;BME280;36190;54.980;73.388;2023-05-24T12:39:18;101085.94;;;42.42;10.36
50292;BME280;36190;54.980;73.388;2023-05-24T12:41:50;101086.69;;;42.00;10.63
50292;BME280;36190;54.980;73.388;2023-05-24T12:44:22;101095.81;;;41.97;10.56
50292;BME280;36190;54.980;73.388;2023-05-24T12:46:50;101089.22;;;41.69;10.83
50292;BME280;36190;54.980;73.388;2023-05-24T12:49:19;101086.06;;;41.71;10.66